Narathiwat, Narathiwat Airport (VTSC)

NameNarathiwat Airport
CityNarathiwat
CountryThailand
ICAOVTSC
IATANAW
Altitude5 m
CoordinatesGoogle Map
Live Air TrafficLiveATC.net
METARVTSC 180500Z 03009KT 360V070 9999 FEW018TCU 30/26 Q1011 NOSIG
2018-11-18 05:00:00 Wind: North-Northeast (30°) 4.63 m/s - Visibility: > 10000 m - Temperature: 30 °C - Dew point: 26 °C - Humidity: 79.2% - Pressure: 1011 hPa

Sorry, no flights used the airport in this database.